sensor_id;sensor_type;location;lat;lon;timestamp;P1;durP1;ratioP1;P2;durP2;ratioP2
20649;SDS011;10484;48.736;9.332;2024-02-21T00:01:38;12.55;;;8.15;;
20649;SDS011;10484;48.736;9.332;2024-02-21T00:04:04;11.23;;;7.60;;
20649;SDS011;10484;48.736;9.332;2024-02-21T00:06:30;10.60;;;8.23;;
20649;SDS011;10484;48.736;9.332;2024-02-21T00:08:56;10.00;;;7.47;;
20649;SDS011;10484;48.736;9.332;2024-02-21T00:11:22;10.57;;;7.40;;
20649;SDS011;10484;48.736;9.332;2024-02-21T00:13:47;10.20;;;8.70;;
20649;SDS011;10484;48.736;9.332;2024-02-21T00:16:13;10.33;;;6.67;;
20649;SDS011;10484;48.736;9.332;2024-02-21T00:18:40;10.20;;;7.43;;
20649;SDS011;10484;48.736;9.332;2024-02-21T00:21:06;14.27;;;7.00;;
20649;SDS011;10484;48.736;9.332;2024-02-21T00:23:31;12.47;;;7.40;;
20649;SDS011;10484;48.736;9.332;2024-02-21T00:25:57;10.10;;;7.00;;
20649;SDS011;10484;48.736;9.332;2024-02-21T00:28:23;11.43;;;8.30;;
20649;SDS011;10484;48.736;9.332;2024-02-21T00:30:48;8.43;;;7.27;;
20649;SDS011;10484;48.736;9.332;2024-02-21T00:33:15;13.23;;;7.97;;
20649;SDS011;10484;48.736;9.332;2024-02-21T00:35:41;11.55;;;7.43;;
20649;SDS011;10484;48.736;9.332;2024-02-21T00:38:07;17.83;;;8.53;;
20649;SDS011;10484;48.736;9.332;2024-02-21T00:40:33;12.00;;;7.27;;
20649;SDS011;10484;48.736;9.332;2024-02-21T00:43:00;10.93;;;7.05;;
20649;SDS011;10484;48.736;9.332;2024-02-21T00:45:25;7.47;;;6.70;;
20649;SDS011;10484;48.736;9.332;2024-02-21T00:47:51;8.80;;;7.17;;
20649;SDS011;10484;48.736;9.332;2024-02-21T00:50:16;10.70;;;7.83;;
20649;SDS011;10484;48.736;9.332;2024-02-21T00:52:42;10.80;;;6.27;;
20649;SDS011;10484;48.736;9.332;2024-02-21T00:55:08;10.48;;;6.53;;
20649;SDS011;10484;48.736;9.332;2024-02-21T00:57:34;9.63;;;6.63;;
20649;SDS011;10484;48.736;9.332;2024-02-21T01:00:00;11.60;;;7.20;;
20649;SDS011;10484;48.736;9.332;2024-02-21T01:02:27;11.07;;;7.55;;
20649;SDS011;10484;48.736;9.332;2024-02-21T01:04:53;7.67;;;6.70;;
20649;SDS011;10484;48.736;9.332;2024-02-21T01:07:19;9.63;;;6.23;;
20649;SDS011;10484;48.736;9.332;2024-02-21T01:09:44;11.50;;;6.60;;
20649;SDS011;10484;48.736;9.332;2024-02-21T01:12:10;12.40;;;6.50;;
20649;SDS011;10484;48.736;9.332;2024-02-21T01:14:35;9.07;;;5.83;;
20649;SDS011;10484;48.736;9.332;2024-02-21T01:17:01;9.27;;;5.90;;
20649;SDS011;10484;48.736;9.332;2024-02-21T01:19:26;10.80;;;6.60;;
20649;SDS011;10484;48.736;9.332;2024-02-21T01:21:52;8.90;;;5.53;;
20649;SDS011;10484;48.736;9.332;2024-02-21T01:24:18;9.20;;;5.97;;
20649;SDS011;10484;48.736;9.332;2024-02-21T01:26:43;10.20;;;6.60;;
20649;SDS011;10484;48.736;9.332;2024-02-21T01:29:09;7.50;;;6.33;;
20649;SDS011;10484;48.736;9.332;2024-02-21T01:31:34;10.63;;;7.50;;
20649;SDS011;10484;48.736;9.332;2024-02-21T01:34:00;7.40;;;6.37;;
20649;SDS011;10484;48.736;9.332;2024-02-21T01:36:25;9.83;;;7.17;;
20649;SDS011;10484;48.736;9.332;2024-02-21T01:38:51;14.70;;;8.27;;
20649;SDS011;10484;48.736;9.332;2024-02-21T01:41:17;16.23;;;7.90;;
20649;SDS011;10484;48.736;9.332;2024-02-21T01:43:42;9.80;;;7.73;;
20649;SDS011;10484;48.736;9.332;2024-02-21T01:46:08;8.57;;;7.67;;
20649;SDS011;10484;48.736;9.332;2024-02-21T01:48:34;15.47;;;7.70;;
20649;SDS011;10484;48.736;9.332;2024-02-21T01:51:00;16.23;;;7.30;;
20649;SDS011;10484;48.736;9.332;2024-02-21T01:53:34;9.18;;;6.97;;
20649;SDS011;10484;48.736;9.332;2024-02-21T01:56:02;8.05;;;5.95;;
20649;SDS011;10484;48.736;9.332;2024-02-21T01:58:30;12.48;;;7.35;;
20649;SDS011;10484;48.736;9.332;2024-02-21T02:00:56;11.00;;;7.30;;
20649;SDS011;10484;48.736;9.332;2024-02-21T02:03:23;8.70;;;6.73;;
20649;SDS011;10484;48.736;9.332;2024-02-21T02:05:50;11.40;;;6.60;;
20649;SDS011;10484;48.736;9.332;2024-02-21T02:08:17;8.83;;;6.23;;
20649;SDS011;10484;48.736;9.332;2024-02-21T02:10:44;10.02;;;6.68;;
20649;SDS011;10484;48.736;9.332;2024-02-21T02:13:11;9.30;;;6.63;;
20649;SDS011;10484;48.736;9.332;2024-02-21T02:15:43;12.73;;;7.90;;
20649;SDS011;10484;48.736;9.332;2024-02-21T02:18:13;11.93;;;7.82;;
20649;SDS011;10484;48.736;9.332;2024-02-21T02:20:40;11.60;;;8.02;;
20649;SDS011;10484;48.736;9.332;2024-02-21T02:23:18;13.93;;;8.00;;
20649;SDS011;10484;48.736;9.332;2024-02-21T02:25:43;12.88;;;8.65;;
20649;SDS011;10484;48.736;9.332;2024-02-21T02:28:14;13.88;;;8.07;;
20649;SDS011;10484;48.736;9.332;2024-02-21T02:30:39;13.00;;;7.77;;
20649;SDS011;10484;48.736;9.332;2024-02-21T02:33:05;13.30;;;8.60;;
20649;SDS011;10484;48.736;9.332;2024-02-21T02:35:31;9.10;;;7.47;;
20649;SDS011;10484;48.736;9.332;2024-02-21T02:37:57;10.68;;;7.90;;
20649;SDS011;10484;48.736;9.332;2024-02-21T02:40:23;7.93;;;7.13;;
20649;SDS011;10484;48.736;9.332;2024-02-21T02:42:49;12.00;;;7.45;;
20649;SDS011;10484;48.736;9.332;2024-02-21T02:45:16;11.75;;;7.18;;
20649;SDS011;10484;48.736;9.332;2024-02-21T02:47:42;9.15;;;7.07;;
20649;SDS011;10484;48.736;9.332;2024-02-21T02:50:10;9.85;;;6.53;;
20649;SDS011;10484;48.736;9.332;2024-02-21T02:52:38;16.33;;;7.95;;
20649;SDS011;10484;48.736;9.332;2024-02-21T02:55:04;13.03;;;7.17;;
20649;SDS011;10484;48.736;9.332;2024-02-21T02:57:30;10.20;;;6.53;;
20649;SDS011;10484;48.736;9.332;2024-02-21T02:59:56;7.60;;;6.40;;
20649;SDS011;10484;48.736;9.332;2024-02-21T03:02:22;8.67;;;7.57;;
20649;SDS011;10484;48.736;9.332;2024-02-21T03:04:48;8.48;;;5.95;;
20649;SDS011;10484;48.736;9.332;2024-02-21T03:07:14;11.20;;;6.47;;
20649;SDS011;10484;48.736;9.332;2024-02-21T03:09:40;10.93;;;6.15;;
20649;SDS011;10484;48.736;9.332;2024-02-21T03:12:07;8.50;;;6.30;;
20649;SDS011;10484;48.736;9.332;2024-02-21T03:14:33;9.10;;;7.27;;
20649;SDS011;10484;48.736;9.332;2024-02-21T03:16:59;8.27;;;5.90;;
20649;SDS011;10484;48.736;9.332;2024-02-21T03:19:25;8.93;;;6.20;;
20649;SDS011;10484;48.736;9.332;2024-02-21T03:21:51;7.63;;;5.50;;
20649;SDS011;10484;48.736;9.332;2024-02-21T03:24:17;10.20;;;7.37;;
20649;SDS011;10484;48.736;9.332;2024-02-21T03:26:43;8.85;;;6.43;;
20649;SDS011;10484;48.736;9.332;2024-02-21T03:29:10;9.57;;;6.37;;
20649;SDS011;10484;48.736;9.332;2024-02-21T03:31:36;9.50;;;5.90;;
20649;SDS011;10484;48.736;9.332;2024-02-21T03:34:02;12.53;;;6.70;;
20649;SDS011;10484;48.736;9.332;2024-02-21T03:36:27;11.63;;;6.70;;
20649;SDS011;10484;48.736;9.332;2024-02-21T03:38:56;12.13;;;6.77;;
20649;SDS011;10484;48.736;9.332;2024-02-21T03:41:22;6.47;;;5.38;;
20649;SDS011;10484;48.736;9.332;2024-02-21T03:43:48;9.80;;;6.33;;
20649;SDS011;10484;48.736;9.332;2024-02-21T03:46:14;6.43;;;5.60;;
20649;SDS011;10484;48.736;9.332;2024-02-21T03:48:40;7.15;;;5.63;;
20649;SDS011;10484;48.736;9.332;2024-02-21T03:51:05;8.13;;;6.33;;
20649;SDS011;10484;48.736;9.332;2024-02-21T03:53:31;8.47;;;5.97;;
20649;SDS011;10484;48.736;9.332;2024-02-21T03:55:57;10.30;;;6.50;;
20649;SDS011;10484;48.736;9.332;2024-02-21T03:58:28;10.83;;;7.60;;
20649;SDS011;10484;48.736;9.332;2024-02-21T04:00:53;12.47;;;6.63;;
20649;SDS011;10484;48.736;9.332;2024-02-21T04:03:19;8.17;;;6.47;;
20649;SDS011;10484;48.736;9.332;2024-02-21T04:05:44;8.77;;;5.83;;
20649;SDS011;10484;48.736;9.332;2024-02-21T04:08:10;10.10;;;6.10;;
20649;SDS011;10484;48.736;9.332;2024-02-21T04:10:36;8.13;;;5.57;;
20649;SDS011;10484;48.736;9.332;2024-02-21T04:13:02;9.40;;;6.20;;
20649;SDS011;10484;48.736;9.332;2024-02-21T04:15:28;8.70;;;5.50;;
20649;SDS011;10484;48.736;9.332;2024-02-21T04:17:54;8.80;;;5.47;;
20649;SDS011;10484;48.736;9.332;2024-02-21T04:20:19;7.63;;;5.63;;
20649;SDS011;10484;48.736;9.332;2024-02-21T04:22:45;9.00;;;5.23;;
20649;SDS011;10484;48.736;9.332;2024-02-21T04:25:11;6.60;;;5.73;;
20649;SDS011;10484;48.736;9.332;2024-02-21T04:27:38;5.90;;;5.00;;
20649;SDS011;10484;48.736;9.332;2024-02-21T04:30:04;8.27;;;5.78;;
20649;SDS011;10484;48.736;9.332;2024-02-21T04:32:30;6.03;;;4.43;;
20649;SDS011;10484;48.736;9.332;2024-02-21T04:34:56;7.27;;;5.40;;
20649;SDS011;10484;48.736;9.332;2024-02-21T04:37:21;9.60;;;5.60;;
20649;SDS011;10484;48.736;9.332;2024-02-21T04:39:48;8.47;;;5.47;;
20649;SDS011;10484;48.736;9.332;2024-02-21T04:42:13;7.80;;;5.35;;
20649;SDS011;10484;48.736;9.332;2024-02-21T04:44:39;7.27;;;4.97;;
20649;SDS011;10484;48.736;9.332;2024-02-21T04:47:05;5.87;;;4.60;;
20649;SDS011;10484;48.736;9.332;2024-02-21T04:49:31;7.57;;;5.10;;
20649;SDS011;10484;48.736;9.332;2024-02-21T04:51:57;8.03;;;4.50;;
20649;SDS011;10484;48.736;9.332;2024-02-21T04:54:22;5.90;;;4.33;;
20649;SDS011;10484;48.736;9.332;2024-02-21T04:56:48;10.30;;;5.20;;
20649;SDS011;10484;48.736;9.332;2024-02-21T04:59:13;5.10;;;3.83;;
20649;SDS011;10484;48.736;9.332;2024-02-21T05:01:39;6.83;;;4.40;;
20649;SDS011;10484;48.736;9.332;2024-02-21T05:04:05;8.00;;;4.20;;
20649;SDS011;10484;48.736;9.332;2024-02-21T05:06:31;5.47;;;4.07;;
20649;SDS011;10484;48.736;9.332;2024-02-21T05:08:56;4.90;;;3.90;;
20649;SDS011;10484;48.736;9.332;2024-02-21T05:11:23;9.07;;;4.38;;
20649;SDS011;10484;48.736;9.332;2024-02-21T05:13:49;8.65;;;4.18;;
20649;SDS011;10484;48.736;9.332;2024-02-21T05:16:15;6.88;;;3.55;;
20649;SDS011;10484;48.736;9.332;2024-02-21T05:18:41;9.73;;;4.70;;
20649;SDS011;10484;48.736;9.332;2024-02-21T05:21:07;5.03;;;3.50;;
20649;SDS011;10484;48.736;9.332;2024-02-21T05:23:33;6.50;;;4.90;;
20649;SDS011;10484;48.736;9.332;2024-02-21T05:25:58;5.33;;;3.63;;
20649;SDS011;10484;48.736;9.332;2024-02-21T05:28:24;5.87;;;3.80;;
20649;SDS011;10484;48.736;9.332;2024-02-21T05:30:50;7.37;;;4.10;;
20649;SDS011;10484;48.736;9.332;2024-02-21T05:33:15;5.10;;;3.53;;
20649;SDS011;10484;48.736;9.332;2024-02-21T05:35:46;5.57;;;3.38;;
20649;SDS011;10484;48.736;9.332;2024-02-21T05:38:13;4.93;;;3.95;;
20649;SDS011;10484;48.736;9.332;2024-02-21T05:40:39;7.40;;;4.10;;
20649;SDS011;10484;48.736;9.332;2024-02-21T05:43:05;8.53;;;4.00;;
20649;SDS011;10484;48.736;9.332;2024-02-21T05:45:32;7.88;;;4.13;;
20649;SDS011;10484;48.736;9.332;2024-02-21T05:47:57;4.00;;;2.83;;
20649;SDS011;10484;48.736;9.332;2024-02-21T05:50:23;7.80;;;3.73;;
20649;SDS011;10484;48.736;9.332;2024-02-21T05:52:51;6.17;;;3.93;;
20649;SDS011;10484;48.736;9.332;2024-02-21T05:55:16;7.07;;;4.65;;
20649;SDS011;10484;48.736;9.332;2024-02-21T05:57:42;7.73;;;3.73;;
20649;SDS011;10484;48.736;9.332;2024-02-21T06:00:08;6.50;;;4.27;;
20649;SDS011;10484;48.736;9.332;2024-02-21T06:02:34;9.45;;;3.55;;
20649;SDS011;10484;48.736;9.332;2024-02-21T06:04:59;7.63;;;3.57;;
20649;SDS011;10484;48.736;9.332;2024-02-21T06:07:25;7.70;;;3.67;;
20649;SDS011;10484;48.736;9.332;2024-02-21T06:09:50;7.63;;;4.27;;
20649;SDS011;10484;48.736;9.332;2024-02-21T06:12:16;4.67;;;4.00;;
20649;SDS011;10484;48.736;9.332;2024-02-21T06:14:42;6.97;;;3.93;;
20649;SDS011;10484;48.736;9.332;2024-02-21T06:17:07;6.73;;;3.60;;
20649;SDS011;10484;48.736;9.332;2024-02-21T06:19:33;5.13;;;3.93;;
20649;SDS011;10484;48.736;9.332;2024-02-21T06:21:58;6.93;;;3.87;;
20649;SDS011;10484;48.736;9.332;2024-02-21T06:24:24;10.10;;;3.60;;
20649;SDS011;10484;48.736;9.332;2024-02-21T06:26:49;6.73;;;4.60;;
20649;SDS011;10484;48.736;9.332;2024-02-21T06:29:15;4.47;;;3.90;;
20649;SDS011;10484;48.736;9.332;2024-02-21T06:31:41;14.60;;;6.23;;
20649;SDS011;10484;48.736;9.332;2024-02-21T06:34:06;8.27;;;6.13;;
20649;SDS011;10484;48.736;9.332;2024-02-21T06:36:32;8.50;;;5.30;;
20649;SDS011;10484;48.736;9.332;2024-02-21T06:38:58;9.87;;;6.77;;
20649;SDS011;10484;48.736;9.332;2024-02-21T06:41:23;5.50;;;4.72;;
20649;SDS011;10484;48.736;9.332;2024-02-21T06:43:49;6.90;;;5.20;;
20649;SDS011;10484;48.736;9.332;2024-02-21T06:46:25;5.63;;;4.18;;
20649;SDS011;10484;48.736;9.332;2024-02-21T06:48:51;7.03;;;4.43;;
20649;SDS011;10484;48.736;9.332;2024-02-21T06:51:17;6.67;;;4.47;;
20649;SDS011;10484;48.736;9.332;2024-02-21T06:53:43;4.70;;;4.20;;
20649;SDS011;10484;48.736;9.332;2024-02-21T06:56:09;6.57;;;4.30;;
20649;SDS011;10484;48.736;9.332;2024-02-21T06:58:35;8.98;;;3.95;;
20649;SDS011;10484;48.736;9.332;2024-02-21T07:01:01;7.80;;;4.03;;
20649;SDS011;10484;48.736;9.332;2024-02-21T07:03:26;7.53;;;4.43;;
20649;SDS011;10484;48.736;9.332;2024-02-21T07:05:52;6.60;;;3.43;;
20649;SDS011;10484;48.736;9.332;2024-02-21T07:08:18;5.10;;;3.53;;
20649;SDS011;10484;48.736;9.332;2024-02-21T07:10:43;5.80;;;4.17;;
20649;SDS011;10484;48.736;9.332;2024-02-21T07:13:09;6.90;;;3.80;;
20649;SDS011;10484;48.736;9.332;2024-02-21T07:15:34;8.57;;;4.57;;
20649;SDS011;10484;48.736;9.332;2024-02-21T07:18:01;8.70;;;4.88;;
20649;SDS011;10484;48.736;9.332;2024-02-21T07:20:27;9.30;;;6.00;;
20649;SDS011;10484;48.736;9.332;2024-02-21T07:22:52;10.13;;;6.10;;
20649;SDS011;10484;48.736;9.332;2024-02-21T07:25:18;8.10;;;5.57;;
20649;SDS011;10484;48.736;9.332;2024-02-21T07:27:44;7.60;;;5.17;;
20649;SDS011;10484;48.736;9.332;2024-02-21T07:30:10;11.80;;;5.97;;
20649;SDS011;10484;48.736;9.332;2024-02-21T07:32:35;7.70;;;5.70;;
20649;SDS011;10484;48.736;9.332;2024-02-21T07:35:01;10.00;;;7.20;;
20649;SDS011;10484;48.736;9.332;2024-02-21T07:37:27;12.97;;;7.03;;
20649;SDS011;10484;48.736;9.332;2024-02-21T07:39:52;8.63;;;6.57;;
20649;SDS011;10484;48.736;9.332;2024-02-21T07:42:18;11.93;;;6.37;;
20649;SDS011;10484;48.736;9.332;2024-02-21T07:44:43;10.60;;;7.80;;
20649;SDS011;10484;48.736;9.332;2024-02-21T07:47:09;10.40;;;6.37;;
20649;SDS011;10484;48.736;9.332;2024-02-21T07:49:42;9.13;;;6.23;;
20649;SDS011;10484;48.736;9.332;2024-02-21T07:52:11;9.52;;;6.72;;
20649;SDS011;10484;48.736;9.332;2024-02-21T07:54:37;8.33;;;6.30;;
20649;SDS011;10484;48.736;9.332;2024-02-21T07:57:02;13.60;;;6.53;;
20649;SDS011;10484;48.736;9.332;2024-02-21T07:59:29;18.23;;;6.20;;
20649;SDS011;10484;48.736;9.332;2024-02-21T08:01:58;7.72;;;5.40;;
20649;SDS011;10484;48.736;9.332;2024-02-21T08:04:24;8.95;;;5.55;;
20649;SDS011;10484;48.736;9.332;2024-02-21T08:06:56;8.45;;;4.75;;
20649;SDS011;10484;48.736;9.332;2024-02-21T08:09:24;8.25;;;5.60;;
20649;SDS011;10484;48.736;9.332;2024-02-21T08:11:49;14.90;;;5.53;;
20649;SDS011;10484;48.736;9.332;2024-02-21T08:14:15;11.00;;;6.07;;
20649;SDS011;10484;48.736;9.332;2024-02-21T08:16:41;8.40;;;5.83;;
20649;SDS011;10484;48.736;9.332;2024-02-21T08:19:07;12.43;;;5.93;;
20649;SDS011;10484;48.736;9.332;2024-02-21T08:21:33;10.20;;;6.50;;
20649;SDS011;10484;48.736;9.332;2024-02-21T08:23:58;9.20;;;6.03;;
20649;SDS011;10484;48.736;9.332;2024-02-21T08:26:24;8.63;;;5.37;;
20649;SDS011;10484;48.736;9.332;2024-02-21T08:28:53;8.53;;;5.50;;
20649;SDS011;10484;48.736;9.332;2024-02-21T08:31:19;8.70;;;5.03;;
20649;SDS011;10484;48.736;9.332;2024-02-21T08:33:45;10.15;;;5.65;;
20649;SDS011;10484;48.736;9.332;2024-02-21T08:36:17;11.63;;;6.23;;
20649;SDS011;10484;48.736;9.332;2024-02-21T08:38:44;9.50;;;5.97;;
20649;SDS011;10484;48.736;9.332;2024-02-21T08:41:10;7.83;;;4.97;;
20649;SDS011;10484;48.736;9.332;2024-02-21T08:43:36;11.53;;;6.87;;
20649;SDS011;10484;48.736;9.332;2024-02-21T08:46:01;8.70;;;5.07;;
20649;SDS011;10484;48.736;9.332;2024-02-21T08:48:27;9.37;;;5.80;;
20649;SDS011;10484;48.736;9.332;2024-02-21T08:50:52;9.50;;;4.70;;
20649;SDS011;10484;48.736;9.332;2024-02-21T08:53:19;8.95;;;5.60;;
20649;SDS011;10484;48.736;9.332;2024-02-21T08:55:45;10.30;;;4.97;;
20649;SDS011;10484;48.736;9.332;2024-02-21T08:58:11;10.10;;;5.00;;
20649;SDS011;10484;48.736;9.332;2024-02-21T09:00:37;8.03;;;4.40;;
20649;SDS011;10484;48.736;9.332;2024-02-21T09:03:03;6.83;;;4.57;;
20649;SDS011;10484;48.736;9.332;2024-02-21T09:05:28;9.93;;;5.40;;
20649;SDS011;10484;48.736;9.332;2024-02-21T09:07:54;7.13;;;4.63;;
20649;SDS011;10484;48.736;9.332;2024-02-21T09:10:20;8.30;;;3.90;;
20649;SDS011;10484;48.736;9.332;2024-02-21T09:12:46;6.60;;;3.83;;
20649;SDS011;10484;48.736;9.332;2024-02-21T09:15:12;8.52;;;4.43;;
20649;SDS011;10484;48.736;9.332;2024-02-21T09:17:38;7.33;;;4.40;;
20649;SDS011;10484;48.736;9.332;2024-02-21T09:20:04;5.80;;;3.43;;
20649;SDS011;10484;48.736;9.332;2024-02-21T09:22:31;6.70;;;3.70;;
20649;SDS011;10484;48.736;9.332;2024-02-21T09:24:59;7.53;;;3.67;;
20649;SDS011;10484;48.736;9.332;2024-02-21T09:27:25;4.72;;;3.95;;
20649;SDS011;10484;48.736;9.332;2024-02-21T09:29:51;7.17;;;4.37;;
20649;SDS011;10484;48.736;9.332;2024-02-21T09:32:17;8.33;;;3.70;;
20649;SDS011;10484;48.736;9.332;2024-02-21T09:34:44;7.07;;;4.17;;
20649;SDS011;10484;48.736;9.332;2024-02-21T09:37:10;6.43;;;3.67;;
20649;SDS011;10484;48.736;9.332;2024-02-21T09:39:35;5.73;;;4.10;;
20649;SDS011;10484;48.736;9.332;2024-02-21T09:42:05;9.00;;;4.60;;
20649;SDS011;10484;48.736;9.332;2024-02-21T09:44:36;8.00;;;3.57;;
20649;SDS011;10484;48.736;9.332;2024-02-21T09:47:03;7.07;;;3.43;;
20649;SDS011;10484;48.736;9.332;2024-02-21T09:49:40;5.60;;;3.50;;
20649;SDS011;10484;48.736;9.332;2024-02-21T09:52:06;6.37;;;3.60;;
20649;SDS011;10484;48.736;9.332;2024-02-21T09:54:35;6.63;;;3.30;;
20649;SDS011;10484;48.736;9.332;2024-02-21T09:57:02;5.07;;;2.83;;
20649;SDS011;10484;48.736;9.332;2024-02-21T09:59:28;3.63;;;2.70;;
20649;SDS011;10484;48.736;9.332;2024-02-21T10:01:55;3.47;;;3.13;;
20649;SDS011;10484;48.736;9.332;2024-02-21T10:04:21;4.73;;;3.20;;
20649;SDS011;10484;48.736;9.332;2024-02-21T10:06:47;4.73;;;2.83;;
20649;SDS011;10484;48.736;9.332;2024-02-21T10:09:25;5.53;;;3.10;;
20649;SDS011;10484;48.736;9.332;2024-02-21T10:11:55;4.07;;;3.00;;
20649;SDS011;10484;48.736;9.332;2024-02-21T10:14:21;5.27;;;2.97;;
20649;SDS011;10484;48.736;9.332;2024-02-21T10:16:47;7.77;;;3.40;;
20649;SDS011;10484;48.736;9.332;2024-02-21T10:19:17;9.53;;;2.80;;
20649;SDS011;10484;48.736;9.332;2024-02-21T10:21:43;9.57;;;3.07;;
20649;SDS011;10484;48.736;9.332;2024-02-21T10:24:10;4.03;;;2.40;;
20649;SDS011;10484;48.736;9.332;2024-02-21T10:26:37;5.50;;;2.10;;
20649;SDS011;10484;48.736;9.332;2024-02-21T10:29:03;4.30;;;2.23;;
20649;SDS011;10484;48.736;9.332;2024-02-21T10:31:29;4.17;;;1.90;;
20649;SDS011;10484;48.736;9.332;2024-02-21T10:33:58;4.30;;;2.33;;
20649;SDS011;10484;48.736;9.332;2024-02-21T10:36:30;5.17;;;2.40;;
20649;SDS011;10484;48.736;9.332;2024-02-21T10:38:56;3.90;;;1.77;;
20649;SDS011;10484;48.736;9.332;2024-02-21T10:41:22;5.80;;;2.27;;
20649;SDS011;10484;48.736;9.332;2024-02-21T10:43:52;3.93;;;2.23;;
20649;SDS011;10484;48.736;9.332;2024-02-21T10:46:20;5.63;;;2.43;;
20649;SDS011;10484;48.736;9.332;2024-02-21T10:48:47;3.90;;;2.50;;
20649;SDS011;10484;48.736;9.332;2024-02-21T10:51:18;3.93;;;2.43;;
20649;SDS011;10484;48.736;9.332;2024-02-21T10:56:35;7.80;;;2.30;;
20649;SDS011;10484;48.736;9.332;2024-02-21T10:59:05;2.93;;;2.20;;
20649;SDS011;10484;48.736;9.332;2024-02-21T11:01:31;2.57;;;1.80;;
20649;SDS011;10484;48.736;9.332;2024-02-21T11:04:02;5.33;;;2.30;;
20649;SDS011;10484;48.736;9.332;2024-02-21T11:06:30;3.30;;;1.90;;
20649;SDS011;10484;48.736;9.332;2024-02-21T11:09:06;4.30;;;1.80;;
20649;SDS011;10484;48.736;9.332;2024-02-21T11:11:33;5.77;;;2.13;;
20649;SDS011;10484;48.736;9.332;2024-02-21T11:14:06;4.03;;;1.70;;
20649;SDS011;10484;48.736;9.332;2024-02-21T11:16:39;4.30;;;2.07;;
20649;SDS011;10484;48.736;9.332;2024-02-21T11:19:09;4.30;;;1.67;;
20649;SDS011;10484;48.736;9.332;2024-02-21T11:21:56;4.80;;;2.10;;
20649;SDS011;10484;48.736;9.332;2024-02-21T11:24:26;3.23;;;2.13;;
20649;SDS011;10484;48.736;9.332;2024-02-21T11:29:53;5.67;;;2.20;;
20649;SDS011;10484;48.736;9.332;2024-02-21T11:32:20;3.50;;;2.00;;
20649;SDS011;10484;48.736;9.332;2024-02-21T11:37:26;4.40;;;1.90;;
20649;SDS011;10484;48.736;9.332;2024-02-21T11:39:53;2.03;;;1.50;;
20649;SDS011;10484;48.736;9.332;2024-02-21T11:42:22;3.63;;;2.07;;
20649;SDS011;10484;48.736;9.332;2024-02-21T11:44:49;4.00;;;1.90;;
20649;SDS011;10484;48.736;9.332;2024-02-21T11:47:15;5.00;;;1.83;;
20649;SDS011;10484;48.736;9.332;2024-02-21T11:49:46;2.60;;;1.50;;
20649;SDS011;10484;48.736;9.332;2024-02-21T11:52:14;2.77;;;1.63;;
20649;SDS011;10484;48.736;9.332;2024-02-21T11:54:41;3.67;;;1.57;;
20649;SDS011;10484;48.736;9.332;2024-02-21T11:57:07;1.47;;;1.30;;
20649;SDS011;10484;48.736;9.332;2024-02-21T11:59:33;3.17;;;1.60;;
20649;SDS011;10484;48.736;9.332;2024-02-21T12:02:00;3.03;;;1.90;;
20649;SDS011;10484;48.736;9.332;2024-02-21T12:04:26;2.00;;;1.30;;
20649;SDS011;10484;48.736;9.332;2024-02-21T12:06:52;2.97;;;1.50;;
20649;SDS011;10484;48.736;9.332;2024-02-21T12:09:19;1.93;;;1.10;;
20649;SDS011;10484;48.736;9.332;2024-02-21T12:11:45;3.83;;;1.73;;
20649;SDS011;10484;48.736;9.332;2024-02-21T12:14:15;3.20;;;1.50;;
20649;SDS011;10484;48.736;9.332;2024-02-21T12:16:41;3.47;;;1.47;;
20649;SDS011;10484;48.736;9.332;2024-02-21T12:19:09;14.57;;;10.87;;
20649;SDS011;10484;48.736;9.332;2024-02-21T12:21:35;19.03;;;8.73;;
20649;SDS011;10484;48.736;9.332;2024-02-21T12:24:11;8.27;;;5.10;;
20649;SDS011;10484;48.736;9.332;2024-02-21T12:26:38;5.33;;;2.83;;
20649;SDS011;10484;48.736;9.332;2024-02-21T12:29:03;6.50;;;2.00;;
20649;SDS011;10484;48.736;9.332;2024-02-21T12:31:29;3.50;;;1.90;;
20649;SDS011;10484;48.736;9.332;2024-02-21T12:33:54;2.47;;;1.80;;
20649;SDS011;10484;48.736;9.332;2024-02-21T12:36:20;5.93;;;2.00;;
20649;SDS011;10484;48.736;9.332;2024-02-21T12:38:46;2.73;;;1.63;;
20649;SDS011;10484;48.736;9.332;2024-02-21T12:41:13;3.40;;;1.60;;
20649;SDS011;10484;48.736;9.332;2024-02-21T12:43:39;2.50;;;1.43;;
20649;SDS011;10484;48.736;9.332;2024-02-21T12:46:05;3.33;;;1.40;;
20649;SDS011;10484;48.736;9.332;2024-02-21T12:48:32;2.30;;;1.43;;
20649;SDS011;10484;48.736;9.332;2024-02-21T12:50:58;2.13;;;1.57;;
20649;SDS011;10484;48.736;9.332;2024-02-21T12:53:24;4.53;;;1.40;;
20649;SDS011;10484;48.736;9.332;2024-02-21T12:55:50;5.20;;;1.70;;
20649;SDS011;10484;48.736;9.332;2024-02-21T12:58:16;7.03;;;4.53;;
20649;SDS011;10484;48.736;9.332;2024-02-21T13:00:42;4.60;;;2.90;;
20649;SDS011;10484;48.736;9.332;2024-02-21T13:03:08;3.83;;;1.97;;
20649;SDS011;10484;48.736;9.332;2024-02-21T13:05:36;3.40;;;1.57;;
20649;SDS011;10484;48.736;9.332;2024-02-21T13:08:02;2.30;;;1.10;;
20649;SDS011;10484;48.736;9.332;2024-02-21T13:10:28;2.70;;;1.40;;
20649;SDS011;10484;48.736;9.332;2024-02-21T13:12:53;2.97;;;1.03;;
20649;SDS011;10484;48.736;9.332;2024-02-21T13:15:19;2.30;;;0.87;;
20649;SDS011;10484;48.736;9.332;2024-02-21T13:17:45;1.73;;;1.10;;
20649;SDS011;10484;48.736;9.332;2024-02-21T13:20:11;1.70;;;0.83;;
20649;SDS011;10484;48.736;9.332;2024-02-21T13:22:37;1.73;;;0.97;;
20649;SDS011;10484;48.736;9.332;2024-02-21T13:25:03;3.57;;;1.03;;
20649;SDS011;10484;48.736;9.332;2024-02-21T13:27:30;1.93;;;0.90;;
20649;SDS011;10484;48.736;9.332;2024-02-21T13:29:55;3.43;;;1.43;;
20649;SDS011;10484;48.736;9.332;2024-02-21T13:32:21;3.07;;;1.37;;
20649;SDS011;10484;48.736;9.332;2024-02-21T13:34:46;3.30;;;1.27;;
20649;SDS011;10484;48.736;9.332;2024-02-21T13:37:13;1.37;;;1.00;;
20649;SDS011;10484;48.736;9.332;2024-02-21T13:39:39;2.43;;;1.07;;
20649;SDS011;10484;48.736;9.332;2024-02-21T13:42:05;1.30;;;1.10;;
20649;SDS011;10484;48.736;9.332;2024-02-21T13:44:31;2.97;;;1.47;;
20649;SDS011;10484;48.736;9.332;2024-02-21T13:46:57;2.90;;;1.00;;
20649;SDS011;10484;48.736;9.332;2024-02-21T13:49:23;1.60;;;0.97;;
20649;SDS011;10484;48.736;9.332;2024-02-21T13:51:48;3.20;;;1.40;;
20649;SDS011;10484;48.736;9.332;2024-02-21T13:54:14;1.37;;;1.07;;
20649;SDS011;10484;48.736;9.332;2024-02-21T13:56:42;3.57;;;1.20;;
20649;SDS011;10484;48.736;9.332;2024-02-21T13:59:08;1.50;;;1.07;;
20649;SDS011;10484;48.736;9.332;2024-02-21T14:01:33;3.03;;;1.03;;
20649;SDS011;10484;48.736;9.332;2024-02-21T14:04:00;2.53;;;1.10;;
20649;SDS011;10484;48.736;9.332;2024-02-21T14:06:26;2.17;;;0.90;;
20649;SDS011;10484;48.736;9.332;2024-02-21T14:08:52;2.40;;;1.03;;
20649;SDS011;10484;48.736;9.332;2024-02-21T14:11:18;2.73;;;0.90;;
20649;SDS011;10484;48.736;9.332;2024-02-21T14:13:43;1.13;;;0.87;;
20649;SDS011;10484;48.736;9.332;2024-02-21T14:16:10;2.60;;;1.17;;
20649;SDS011;10484;48.736;9.332;2024-02-21T14:18:38;2.10;;;1.27;;
20649;SDS011;10484;48.736;9.332;2024-02-21T14:21:06;1.23;;;1.00;;
20649;SDS011;10484;48.736;9.332;2024-02-21T14:23:31;2.83;;;1.10;;
20649;SDS011;10484;48.736;9.332;2024-02-21T14:25:58;3.67;;;1.27;;
20649;SDS011;10484;48.736;9.332;2024-02-21T14:28:24;2.50;;;1.10;;
20649;SDS011;10484;48.736;9.332;2024-02-21T14:30:50;2.17;;;1.20;;
20649;SDS011;10484;48.736;9.332;2024-02-21T14:33:18;2.10;;;1.13;;
20649;SDS011;10484;48.736;9.332;2024-02-21T14:35:44;2.53;;;1.00;;
20649;SDS011;10484;48.736;9.332;2024-02-21T14:38:10;3.27;;;1.47;;
20649;SDS011;10484;48.736;9.332;2024-02-21T14:40:35;1.87;;;1.37;;
20649;SDS011;10484;48.736;9.332;2024-02-21T14:43:01;3.17;;;1.30;;
20649;SDS011;10484;48.736;9.332;2024-02-21T14:45:26;2.70;;;1.10;;
20649;SDS011;10484;48.736;9.332;2024-02-21T14:47:52;3.67;;;1.30;;
20649;SDS011;10484;48.736;9.332;2024-02-21T14:50:17;2.50;;;1.07;;